Погода Урибна неделю

Республика Дагестан, Россия

12 - 18 июля
  • 12июля
    Сегодня
    +11°
    +22°
    Небольшая облачность, ливень
    ВремяПогодаТемператураВлажностьДавлениеВетер, м/сВероятность осадков
    00:00Облачно с прояснениями+14°C99 %630 мм0.7 м/с9 %
    03:00Небольшая облачность+13°C98 %629 мм0.9 м/с4 %
    06:00Небольшая облачность+14°C98 %630 мм0.5 м/с2 %
    09:00Практически безоблачно+19°C73 %631 мм1.0 м/с2 %
    12:00Небольшая облачность, возможен дождь с грозой+21°C60 %631 мм1.8 м/с15 %
    15:00Небольшая облачность, ливень+21°C60 %631 мм1.0 м/с29 %
    18:00Облачно с прояснениями+20°C68 %630 мм0.5 м/с22 %
    21:00Небольшая облачность+15°C89 %629 мм1.1 м/с3 %
  • 13июля
    Суббота
    +10°
    +22°
    Небольшая облачность
    ВремяПогодаТемператураВлажностьДавлениеВетер, м/сВероятность осадков
    00:00Ясно и безоблачно+15°C89 %628 мм1.5 м/с3 %
    03:00Ясно и безоблачно+14°C87 %628 мм1.4 м/с6 %
    06:00Ясно и безоблачно+14°C85 %628 мм1.4 м/с2 %
    09:00Ясно и безоблачно+19°C58 %629 мм0.8 м/с6 %
    12:00Небольшая облачность+22°C48 %629 мм2.2 м/с20 %
    15:00Небольшая облачность+21°C59 %629 мм2.3 м/с24 %
    18:00Облачно с прояснениями+20°C60 %629 мм1.0 м/с14 %
    21:00Ясно и безоблачно+14°C79 %627 мм1.1 м/с4 %
  • 14июля
    Воскресенье
    +10°
    +23°
    Небольшая облачность
    ВремяПогодаТемператураВлажностьДавлениеВетер, м/сВероятность осадков
    00:00Практически безоблачно+13°C85 %627 мм0.8 м/с7 %
    03:00Небольшая облачность+12°C88 %626 мм1.0 м/с5 %
    06:00Ясно и безоблачно+13°C86 %627 мм1.6 м/с4 %
    09:00Небольшая облачность+18°C51 %629 мм1.1 м/с3 %
    12:00Практически безоблачно+22°C37 %629 мм1.8 м/с3 %
    15:00Небольшая облачность+23°C37 %629 мм2.3 м/с2 %
    18:00Ясно и безоблачно+20°C52 %629 мм0.8 м/с2 %
    21:00Ясно и безоблачно+15°C63 %628 мм0.7 м/с2 %
  • 15июля
    Понедельник
    +13°
    +23°
    Ясно и безоблачно
    ВремяПогодаТемператураВлажностьДавлениеВетер, м/сВероятность осадков
    00:00Ясно и безоблачно+12°C78 %627 мм1.1 м/с2 %
    03:00Ясно и безоблачно+12°C80 %627 мм1.6 м/с2 %
    06:00Ясно и безоблачно+12°C78 %628 мм1.4 м/с2 %
    09:00Ясно и безоблачно+19°C47 %630 мм0.9 м/с2 %
    12:00Практически безоблачно+22°C39 %631 мм1.8 м/с2 %
    15:00Ясно и безоблачно+23°C38 %631 мм2.3 м/с3 %
    18:00Ясно и безоблачно+20°C58 %630 мм0.9 м/с2 %
    21:00Ясно и безоблачно+17°C62 %630 мм0.4 м/с2 %
  • 16июля
    Вторник
    +14°
    +24°
    Практически безоблачно
    ВремяПогодаТемператураВлажностьДавлениеВетер, м/сВероятность осадков
    00:00Ясно и безоблачно+14°C85 %629 мм0.7 м/с2 %
    03:00Ясно и безоблачно+14°C88 %629 мм1.5 м/с2 %
    06:00Ясно и безоблачно+14°C80 %629 мм1.6 м/с2 %
    09:00Ясно и безоблачно+20°C53 %631 мм0.8 м/с2 %
    12:00Ясно и безоблачно+23°C42 %632 мм2.0 м/с6 %
    15:00Практически безоблачно+23°C41 %631 мм2.1 м/с14 %
    18:00Практически безоблачно+21°C61 %631 мм1.3 м/с10 %
    21:00Ясно и безоблачно+17°C70 %631 мм0.5 м/с5 %
Мы используем cookies
Соглашаюсь